Time;durP1;ratioP1;P1;durP2;ratioP2;P2;SDS_P1;SDS_P2;PMS_P1;PMS_P2;Temp;Humidity;BMP_temperature;BMP_pressure;BME280_temperature;BME280_humidity;BME280_pressure;Samples;Min_cycle;Max_cycle;Signal;HPM_P1;HPM_P2
2023/03/06 00:01:36;;;;;;;17.73;10.07;;;1.00;1.00;;;;;;4979448;28;20838;-50
2023/03/06 00:04:01;;;;;;;15.53;8.20;;;1.00;1.00;;;;;;4980180;28;20359;-48
2023/03/06 00:06:27;;;;;;;14.73;9.00;;;1.00;1.00;;;;;;4981613;28;20201;-49
2023/03/06 00:08:53;;;;;;;17.67;9.13;;;1.00;1.00;;;;;;4983337;28;20189;-50
2023/03/06 00:11:19;;;;;;;14.73;8.03;;;1.00;1.00;;;;;;4984572;28;20212;-49
2023/03/06 00:13:45;;;;;;;15.47;8.43;;;1.00;1.00;;;;;;4981250;28;20476;-50
2023/03/06 00:16:11;;;;;;;12.87;7.83;;;1.00;1.00;;;;;;4984103;28;20470;-49
2023/03/06 00:18:36;;;;;;;12.67;7.83;;;1.00;1.00;;;;;;4981795;28;20184;-51
2023/03/06 00:21:06;;;;;;;16.60;8.60;;;1.00;1.00;;;;;;4981090;28;20683;-49
2023/03/06 00:23:31;;;;;;;15.30;8.90;;;1.00;1.00;;;;;;4979291;28;20213;-49
2023/03/06 00:25:57;;;;;;;17.30;9.23;;;1.00;1.00;;;;;;4979388;28;20808;-49
2023/03/06 00:28:22;;;;;;;16.33;9.43;;;1.00;1.00;;;;;;4979460;28;20188;-49
2023/03/06 00:30:48;;;;;;;15.80;9.33;;;1.00;1.00;;;;;;4979400;28;20228;-48
2023/03/06 00:33:14;;;;;;;15.77;9.20;;;1.00;1.00;;;;;;4979469;28;20181;-50
2023/03/06 00:35:40;;;;;;;15.80;9.60;;;1.00;1.00;;;;;;4979141;28;20792;-49
2023/03/06 00:38:06;;;;;;;20.40;8.67;;;0.90;1.00;;;;;;4979560;28;20191;-48
2023/03/06 00:40:31;;;;;;;18.67;9.27;;;0.90;1.00;;;;;;4977359;28;20531;-49
2023/03/06 00:42:57;;;;;;;15.07;8.60;;;0.90;1.00;;;;;;4980763;28;20537;-49
2023/03/06 00:45:22;;;;;;;20.40;9.83;;;0.90;1.00;;;;;;4980672;28;20227;-49
2023/03/06 00:47:48;;;;;;;14.77;9.00;;;0.80;1.00;;;;;;4981314;28;20676;-49
2023/03/06 00:50:14;;;;;;;15.57;9.17;;;0.80;1.00;;;;;;4984253;28;20283;-49
2023/03/06 00:52:40;;;;;;;17.70;9.80;;;0.80;1.00;;;;;;4980052;28;20953;-50
2023/03/06 00:55:06;;;;;;;18.97;8.87;;;0.80;1.00;;;;;;4980506;28;20198;-48
2023/03/06 00:57:32;;;;;;;18.80;9.77;;;0.80;1.00;;;;;;4980961;28;20433;-49
2023/03/06 00:59:57;;;;;;;14.63;8.70;;;0.70;1.00;;;;;;4979880;28;20962;-50
2023/03/06 01:02:23;;;;;;;19.87;9.27;;;0.80;1.00;;;;;;4979439;28;20275;-49
2023/03/06 01:04:49;;;;;;;14.47;8.23;;;0.70;1.00;;;;;;4981184;28;20252;-49
2023/03/06 01:07:14;;;;;;;16.33;9.43;;;0.80;1.00;;;;;;4978686;28;20241;-49
2023/03/06 01:09:40;;;;;;;14.03;7.73;;;0.80;1.00;;;;;;4983900;28;20652;-49
2023/03/06 01:12:06;;;;;;;17.93;9.27;;;0.80;1.00;;;;;;4978483;28;20189;-49
2023/03/06 01:14:31;;;;;;;20.33;10.23;;;0.80;1.00;;;;;;4979171;28;20534;-49
2023/03/06 01:16:57;;;;;;;21.13;11.10;;;0.70;1.00;;;;;;4981686;28;20453;-49
2023/03/06 01:19:23;;;;;;;19.77;10.10;;;0.80;1.00;;;;;;4978569;28;20209;-49
2023/03/06 01:21:49;;;;;;;18.83;9.53;;;0.70;1.00;;;;;;4978136;28;20966;-49
2023/03/06 01:24:14;;;;;;;18.80;10.00;;;0.70;1.00;;;;;;4986534;28;20314;-49
2023/03/06 01:26:40;;;;;;;16.50;8.77;;;0.80;1.00;;;;;;4979627;28;20191;-49
2023/03/06 01:29:05;;;;;;;17.83;8.90;;;0.70;1.00;;;;;;4980258;28;20708;-49
2023/03/06 01:31:31;;;;;;;15.60;8.00;;;0.70;1.00;;;;;;4979877;28;20185;-49
2023/03/06 01:33:57;;;;;;;15.70;8.60;;;0.70;1.00;;;;;;4979051;28;20280;-49
2023/03/06 01:36:23;;;;;;;19.80;9.40;;;0.70;1.00;;;;;;4982175;28;20237;-49
2023/03/06 01:38:48;;;;;;;14.23;8.30;;;0.70;1.00;;;;;;4981129;28;20197;-48
2023/03/06 01:41:14;;;;;;;17.20;9.33;;;0.70;1.00;;;;;;4983119;28;20188;-48
2023/03/06 01:43:43;;;;;;;19.87;8.73;;;0.70;1.00;;;;;;4976261;28;20728;-48
2023/03/06 01:46:27;;;;;;;18.80;9.20;;;0.70;1.00;;;;;;4980209;28;20448;-51
2023/03/06 01:49:13;;;;;;;18.70;8.97;;;0.70;1.00;;;;;;4981079;28;20440;-49
2023/03/06 01:51:56;;;;;;;16.80;9.00;;;0.70;1.00;;;;;;4978862;28;20441;-51
2023/03/06 01:54:33;;;;;;;17.60;9.37;;;0.70;1.00;;;;;;4978879;28;20444;-49
2023/03/06 01:57:04;;;;;;;21.40;10.50;;;0.70;1.00;;;;;;4974771;28;20659;-48
2023/03/06 01:59:33;;;;;;;20.20;10.40;;;0.70;1.00;;;;;;4975079;28;20520;-48
2023/03/06 02:02:01;;;;;;;27.10;12.67;;;0.70;1.00;;;;;;4983020;28;20990;-49
2023/03/06 02:04:27;;;;;;;27.70;12.00;;;0.70;1.00;;;;;;4980283;28;20527;-48
2023/03/06 02:06:53;;;;;;;25.50;12.80;;;0.70;3.90;;;;;;4978629;28;20484;-49
2023/03/06 02:09:19;;;;;;;28.07;12.40;;;0.70;8.70;;;;;;4984519;28;20450;-49
2023/03/06 02:11:45;;;;;;;27.03;12.30;;;0.70;13.70;;;;;;4977544;28;21082;-48
2023/03/06 02:14:17;;;;;;;26.50;11.67;;;0.70;16.00;;;;;;4977846;28;20190;-48
2023/03/06 02:16:43;;;;;;;30.60;13.37;;;0.80;17.10;;;;;;4974526;28;20653;-48
2023/03/06 02:19:36;;;;;;;34.33;13.77;;;0.70;20.60;;;;;;4977726;28;20459;-51
2023/03/06 02:22:02;;;;;;;35.13;14.70;;;0.80;24.20;;;;;;4970133;28;20467;-48
2023/03/06 02:24:55;;;;;;;34.03;15.50;;;0.80;27.20;;;;;;4975643;28;20473;-48
2023/03/06 02:27:23;;;;;;;38.93;15.93;;;0.80;28.80;;;;;;4977456;28;20805;-48
2023/03/06 02:29:49;;;;;;;30.63;13.53;;;0.80;34.10;;;;;;4976680;28;21468;-48
2023/03/06 02:32:15;;;;;;;32.07;14.67;;;0.90;35.50;;;;;;4978181;28;20444;-48
2023/03/06 02:34:46;;;;;;;36.50;16.13;;;0.80;32.30;;;;;;4975880;28;20246;-49
2023/03/06 02:37:12;;;;;;;33.70;13.77;;;0.80;30.00;;;;;;4978742;28;20626;-48
2023/03/06 02:39:41;;;;;;;28.90;14.57;;;0.80;31.70;;;;;;4974861;28;20516;-49
2023/03/06 02:42:08;;;;;;;38.80;17.00;;;0.80;29.20;;;;;;4978389;28;20196;-48
2023/03/06 02:44:35;;;;;;;31.63;14.03;;;0.90;29.40;;;;;;4978874;28;20593;-48
2023/03/06 02:47:01;;;;;;;27.03;13.03;;;0.90;25.90;;;;;;4980501;28;20431;-49
2023/03/06 02:49:26;;;;;;;29.60;13.63;;;0.80;19.70;;;;;;4981358;28;20442;-48
2023/03/06 02:51:52;;;;;;;33.43;13.83;;;0.80;18.00;;;;;;4978254;28;20716;-48
2023/03/06 02:54:17;;;;;;;32.90;14.70;;;0.80;16.40;;;;;;4975941;28;20189;-48
2023/03/06 02:56:44;;;;;;;32.10;13.63;;;0.70;17.10;;;;;;4979431;28;20189;-48
2023/03/06 02:59:10;;;;;;;37.20;16.10;;;0.70;21.50;;;;;;4978425;28;20581;-49
2023/03/06 03:01:36;;;;;;;34.60;14.37;;;0.70;25.40;;;;;;4981311;28;20445;-49
2023/03/06 03:04:02;;;;;;;42.37;17.07;;;0.70;26.70;;;;;;4981651;28;20502;-48
2023/03/06 03:06:27;;;;;;;29.93;13.40;;;0.70;30.20;;;;;;4979950;28;20188;-48
2023/03/06 03:08:53;;;;;;;33.90;14.70;;;0.70;36.20;;;;;;4979739;28;20224;-48
2023/03/06 03:11:18;;;;;;;38.33;13.90;;;0.70;36.00;;;;;;4974666;28;20650;-49
2023/03/06 03:13:44;;;;;;;32.93;14.33;;;0.70;32.40;;;;;;4977880;28;20216;-48
2023/03/06 03:16:14;;;;;;;33.30;12.97;;;0.80;31.90;;;;;;4975200;28;20193;-49
2023/03/06 03:18:40;;;;;;;29.60;13.33;;;0.70;30.20;;;;;;4977039;28;20197;-48
2023/03/06 03:21:08;;;;;;;24.43;12.40;;;0.70;24.30;;;;;;4978545;28;20863;-48
2023/03/06 03:23:33;;;;;;;31.80;12.13;;;0.70;24.30;;;;;;4980406;28;20590;-49
2023/03/06 03:26:18;;;;;;;26.03;11.10;;;0.70;21.90;;;;;;4974848;28;20453;-49
2023/03/06 03:28:44;;;;;;;19.10;10.70;;;0.70;16.40;;;;;;4975215;28;20264;-49
2023/03/06 03:31:11;;;;;;;23.50;11.07;;;0.70;8.20;;;;;;4977355;28;20448;-49
2023/03/06 03:33:37;;;;;;;18.93;10.10;;;0.70;1.00;;;;;;4978309;28;20491;-49
2023/03/06 03:36:04;;;;;;;18.10;7.93;;;0.70;1.00;;;;;;4979907;28;20525;-50
2023/03/06 03:38:31;;;;;;;17.13;8.37;;;0.60;1.00;;;;;;4981836;28;20463;-48
2023/03/06 03:40:56;;;;;;;24.07;9.00;;;0.70;1.00;;;;;;4980707;28;20848;-49
2023/03/06 03:43:22;;;;;;;17.73;8.80;;;0.60;1.00;;;;;;4979887;28;20472;-49
2023/03/06 03:45:48;;;;;;;16.50;8.43;;;0.60;1.00;;;;;;4981106;28;20268;-49
2023/03/06 03:48:13;;;;;;;17.63;7.87;;;0.60;1.00;;;;;;4980192;28;20252;-49
2023/03/06 03:50:39;;;;;;;17.10;7.57;;;0.60;1.00;;;;;;4978836;28;20250;-49
2023/03/06 03:53:04;;;;;;;13.07;6.27;;;0.60;1.00;;;;;;4983102;28;20606;-49
2023/03/06 03:55:30;;;;;;;21.80;7.07;;;0.50;1.00;;;;;;4980475;28;20189;-49
2023/03/06 03:57:56;;;;;;;11.50;5.90;;;0.50;1.00;;;;;;4979403;28;20189;-50
2023/03/06 04:00:21;;;;;;;15.53;5.73;;;0.40;1.00;;;;;;4987531;28;20247;-49
2023/03/06 04:02:47;;;;;;;10.77;4.80;;;0.40;1.00;;;;;;4980535;28;20539;-50
2023/03/06 04:05:14;;;;;;;10.47;4.17;;;0.50;1.00;;;;;;4980503;28;20703;-49
2023/03/06 04:07:40;;;;;;;9.67;4.37;;;0.40;1.00;;;;;;4978926;28;20692;-49
2023/03/06 04:10:08;;;;;;;10.20;3.97;;;0.40;1.00;;;;;;4983105;28;20530;-49
2023/03/06 04:12:34;;;;;;;14.03;4.87;;;0.40;1.00;;;;;;4980502;28;20966;-49
2023/03/06 04:15:00;;;;;;;8.70;4.63;;;0.30;1.00;;;;;;4980326;28;20453;-49
2023/03/06 04:17:26;;;;;;;8.47;4.00;;;0.30;1.00;;;;;;4977359;28;20524;-49
2023/03/06 04:19:52;;;;;;;11.13;5.07;;;0.40;1.00;;;;;;4978053;28;20208;-49
2023/03/06 04:22:18;;;;;;;10.70;4.77;;;0.40;1.00;;;;;;4978611;28;20437;-50
2023/03/06 04:24:43;;;;;;;15.97;5.40;;;0.30;1.00;;;;;;4978123;28;20249;-49
2023/03/06 04:27:09;;;;;;;13.73;5.90;;;0.30;1.00;;;;;;4980898;28;20223;-51
2023/03/06 04:29:35;;;;;;;14.50;5.10;;;0.30;1.00;;;;;;4979905;28;20197;-49
2023/03/06 04:32:01;;;;;;;10.70;4.70;;;0.30;1.00;;;;;;4980187;28;20231;-49
2023/03/06 04:34:27;;;;;;;11.67;5.17;;;0.30;1.00;;;;;;4980603;28;20237;-49
2023/03/06 04:36:52;;;;;;;12.53;6.00;;;0.30;1.00;;;;;;4979792;28;20971;-50
2023/03/06 04:39:18;;;;;;;18.30;5.87;;;0.30;1.00;;;;;;4982289;28;20185;-49
2023/03/06 04:41:43;;;;;;;14.20;6.80;;;0.30;1.00;;;;;;4981286;28;20590;-50
2023/03/06 04:44:09;;;;;;;15.80;7.63;;;0.40;1.00;;;;;;4981026;28;20308;-50
2023/03/06 04:46:35;;;;;;;11.60;6.27;;;0.40;1.00;;;;;;4984530;28;20197;-49
2023/03/06 04:49:00;;;;;;;7.57;4.50;;;0.40;1.00;;;;;;4979811;28;20189;-49
2023/03/06 04:51:26;;;;;;;10.67;4.90;;;0.30;1.00;;;;;;4980427;28;20554;-49
2023/03/06 04:53:52;;;;;;;10.03;4.30;;;0.20;1.00;;;;;;4982466;28;20201;-49
2023/03/06 04:56:18;;;;;;;12.67;3.97;;;0.20;1.00;;;;;;4982117;28;20193;-49
2023/03/06 04:58:43;;;;;;;10.17;3.93;;;0.20;1.00;;;;;;4987061;28;20196;-49
2023/03/06 05:01:10;;;;;;;8.30;4.03;;;0.10;1.00;;;;;;4979447;28;20188;-49
2023/03/06 05:03:36;;;;;;;3.53;3.13;;;0.10;1.00;;;;;;4977604;28;20227;-50
2023/03/06 05:06:02;;;;;;;8.13;4.30;;;0.00;1.00;;;;;;4978305;28;20452;-49
2023/03/06 05:08:28;;;;;;;5.63;2.83;;;0.00;1.00;;;;;;4982425;28;20450;-49
2023/03/06 05:10:59;;;;;;;5.90;3.40;;;0.00;1.00;;;;;;4979663;28;20189;-49
2023/03/06 05:13:26;;;;;;;4.87;2.40;;;0.00;1.00;;;;;;4977997;28;20969;-49
2023/03/06 05:15:52;;;;;;;9.67;3.00;;;-0.10;1.00;;;;;;4979430;28;20456;-51
2023/03/06 05:18:18;;;;;;;8.60;3.27;;;0.00;1.00;;;;;;4976573;28;20449;-49
2023/03/06 05:20:44;;;;;;;7.73;4.73;;;-0.10;1.00;;;;;;4979295;28;20451;-49
2023/03/06 05:23:10;;;;;;;12.77;4.83;;;0.00;1.00;;;;;;4979980;28;20449;-49
2023/03/06 05:25:39;;;;;;;9.40;4.93;;;0.00;1.00;;;;;;4981293;28;20455;-49
2023/03/06 05:28:04;;;;;;;10.43;5.63;;;0.10;1.00;;;;;;4983301;28;20260;-50
2023/03/06 05:30:30;;;;;;;17.47;8.00;;;0.00;1.00;;;;;;4982169;28;21083;-48
2023/03/06 05:32:56;;;;;;;16.33;8.10;;;0.00;1.00;;;;;;4977488;28;20228;-48
2023/03/06 05:35:22;;;;;;;19.63;8.20;;;0.00;1.00;;;;;;4980129;28;20559;-49
2023/03/06 05:37:48;;;;;;;22.83;10.10;;;0.10;1.00;;;;;;4976672;28;20273;-49
2023/03/06 05:40:15;;;;;;;20.63;8.90;;;0.10;1.00;;;;;;4981393;28;20457;-48
2023/03/06 05:42:41;;;;;;;21.50;10.03;;;0.10;1.00;;;;;;4980077;28;20443;-48
2023/03/06 05:45:07;;;;;;;24.77;10.07;;;0.10;1.00;;;;;;4978991;28;20822;-48
2023/03/06 05:47:32;;;;;;;23.27;10.07;;;0.10;1.00;;;;;;4979150;28;20194;-49
2023/03/06 05:49:58;;;;;;;21.43;10.57;;;0.10;1.00;;;;;;4982034;28;20961;-48
2023/03/06 05:52:24;;;;;;;25.23;8.93;;;0.10;1.00;;;;;;4978653;28;20204;-48
2023/03/06 05:54:51;;;;;;;25.00;11.60;;;0.10;1.00;;;;;;4978892;28;20197;-50
2023/03/06 05:57:22;;;;;;;22.47;10.37;;;0.10;1.00;;;;;;4979683;28;20196;-48
2023/03/06 05:59:48;;;;;;;22.03;9.00;;;0.00;1.00;;;;;;4979998;28;20770;-48
2023/03/06 06:02:15;;;;;;;22.50;10.03;;;0.10;1.00;;;;;;4979053;28;20451;-48
2023/03/06 06:04:40;;;;;;;23.00;9.20;;;0.10;1.00;;;;;;4977963;28;20482;-48
2023/03/06 06:07:06;;;;;;;19.80;7.93;;;0.10;1.00;;;;;;4980960;28;20490;-48
2023/03/06 06:09:32;;;;;;;25.73;10.40;;;0.20;1.00;;;;;;4978277;28;20189;-48
2023/03/06 06:12:02;;;;;;;20.20;9.50;;;0.10;1.00;;;;;;4983197;28;20619;-48
2023/03/06 06:14:29;;;;;;;16.93;8.90;;;0.20;1.00;;;;;;4982998;28;20228;-48
2023/03/06 06:16:55;;;;;;;21.40;10.07;;;0.20;1.00;;;;;;4979535;28;20436;-48
2023/03/06 06:19:21;;;;;;;16.73;8.90;;;0.20;1.00;;;;;;4979855;28;20443;-48
2023/03/06 06:21:52;;;;;;;18.40;9.03;;;0.20;1.00;;;;;;4976608;28;20433;-48
2023/03/06 06:24:21;;;;;;;18.07;9.90;;;0.20;1.00;;;;;;4981823;28;20988;-48
2023/03/06 06:26:49;;;;;;;21.70;9.73;;;0.30;5.80;;;;;;4978829;28;20934;-48
2023/03/06 06:29:15;;;;;;;23.17;9.83;;;0.30;12.60;;;;;;4980736;28;20524;-47
2023/03/06 06:31:41;;;;;;;21.93;10.23;;;0.40;19.40;;;;;;4977426;28;20511;-49
2023/03/06 06:34:08;;;;;;;21.87;9.63;;;0.50;26.80;;;;;;4976660;28;20239;-48
2023/03/06 06:36:34;;;;;;;20.20;10.67;;;0.60;31.40;;;;;;4980637;28;20669;-48
2023/03/06 06:39:00;;;;;;;23.50;11.00;;;0.60;29.50;;;;;;4978038;28;20483;-48
2023/03/06 06:41:26;;;;;;;21.67;9.60;;;0.70;23.30;;;;;;4980177;28;20184;-48
2023/03/06 06:43:52;;;;;;;28.07;11.67;;;0.70;15.70;;;;;;4979241;28;21006;-48
2023/03/06 06:46:17;;;;;;;25.43;10.97;;;0.80;7.80;;;;;;4976059;28;20445;-48
2023/03/06 06:48:43;;;;;;;24.90;12.03;;;0.80;3.00;;;;;;4980230;28;20652;-47
2023/03/06 06:51:09;;;;;;;27.90;11.20;;;0.80;1.00;;;;;;4977970;28;20181;-49
2023/03/06 06:53:34;;;;;;;21.83;11.43;;;0.80;1.00;;;;;;4976582;28;20186;-49
2023/03/06 06:56:00;;;;;;;26.37;11.33;;;0.90;1.00;;;;;;4977026;28;20302;-48
2023/03/06 06:58:26;;;;;;;18.30;9.67;;;0.90;1.00;;;;;;4979273;28;20214;-48
2023/03/06 07:00:51;;;;;;;22.20;10.60;;;1.00;1.00;;;;;;4982450;28;20621;-48
2023/03/06 07:03:17;;;;;;;21.67;9.23;;;1.10;1.00;;;;;;4981614;28;20191;-48
2023/03/06 07:05:43;;;;;;;17.20;9.03;;;1.10;1.00;;;;;;4979573;28;20284;-47
2023/03/06 07:08:09;;;;;;;18.20;9.63;;;1.20;1.00;;;;;;4978838;28;20185;-50
2023/03/06 07:10:38;;;;;;;23.10;10.37;;;1.30;1.00;;;;;;4978185;28;20551;-47
2023/03/06 07:13:04;;;;;;;19.87;10.40;;;1.40;1.00;;;;;;4979061;28;20219;-48
2023/03/06 07:15:30;;;;;;;18.17;9.40;;;1.50;1.00;;;;;;4984070;28;20458;-49
2023/03/06 07:17:56;;;;;;;16.83;9.77;;;1.50;1.00;;;;;;4983317;28;20465;-47
2023/03/06 07:20:22;;;;;;;18.27;8.87;;;1.50;1.00;;;;;;4978220;28;20312;-48
2023/03/06 07:22:48;;;;;;;19.60;9.40;;;1.50;1.00;;;;;;4981931;28;20548;-48
2023/03/06 07:25:14;;;;;;;23.47;11.77;;;1.40;1.00;;;;;;4980605;28;20563;-48
2023/03/06 07:27:40;;;;;;;31.57;12.63;;;1.40;1.00;;;;;;4981784;28;21038;-47
2023/03/06 07:30:06;;;;;;;26.10;12.40;;;1.40;1.00;;;;;;4978973;28;20197;-47
2023/03/06 07:32:31;;;;;;;28.00;12.90;;;1.50;1.00;;;;;;4981735;28;20184;-48
2023/03/06 07:34:57;;;;;;;27.93;13.90;;;1.60;1.00;;;;;;4981629;28;21005;-47
2023/03/06 07:37:22;;;;;;;26.90;12.30;;;1.50;1.00;;;;;;4981553;28;20248;-49
2023/03/06 07:39:48;;;;;;;30.30;13.50;;;1.50;1.00;;;;;;4985930;28;20657;-47
2023/03/06 07:42:14;;;;;;;24.67;11.50;;;1.60;1.00;;;;;;4983382;28;20305;-48
2023/03/06 07:44:40;;;;;;;23.53;11.43;;;1.70;1.00;;;;;;4983377;28;20217;-49
2023/03/06 07:47:06;;;;;;;27.20;12.90;;;1.90;1.00;;;;;;4969047;28;20807;-48
2023/03/06 07:49:34;;;;;;;32.80;13.00;;;2.30;1.00;;;;;;4982592;28;20203;-48
2023/03/06 07:52:00;;;;;;;21.10;10.27;;;2.50;99.90;;;;;;4980089;28;20436;-48
2023/03/06 07:54:27;;;;;;;23.97;9.97;;;2.60;65.40;;;;;;4985564;28;20518;-49
2023/03/06 07:56:52;;;;;;;19.50;9.40;;;2.60;1.00;;;;;;4987976;28;20436;-48
2023/03/06 07:59:18;;;;;;;23.90;9.83;;;2.60;99.90;;;;;;4979989;28;20508;-48
2023/03/06 08:01:43;;;;;;;18.60;9.60;;;2.70;99.90;;;;;;4983785;28;20236;-48
2023/03/06 08:04:09;;;;;;;22.77;10.43;;;2.80;99.90;;;;;;4977995;28;20224;-51
2023/03/06 08:06:35;;;;;;;21.83;9.27;;;3.00;99.90;;;;;;4979061;28;20272;-48
2023/03/06 08:09:01;;;;;;;22.10;10.80;;;3.10;13.90;;;;;;4979722;28;20281;-48
2023/03/06 08:11:29;;;;;;;24.17;10.87;;;3.00;77.70;;;;;;4981554;28;20190;-50
2023/03/06 08:13:56;;;;;;;23.50;10.90;;;2.80;1.00;;;;;;4981017;28;20482;-47
2023/03/06 08:16:24;;;;;;;23.90;11.97;;;2.80;99.90;;;;;;4985464;28;20443;-48
2023/03/06 08:18:49;;;;;;;23.93;11.63;;;2.80;1.00;;;;;;4982096;28;20440;-47
2023/03/06 08:21:21;;;;;;;27.73;11.73;;;2.90;1.00;;;;;;4977268;28;20974;-48
2023/03/06 08:23:47;;;;;;;22.33;11.23;;;2.90;1.00;;;;;;4981427;28;20231;-49
2023/03/06 08:26:21;;;;;;;21.63;10.80;;;3.20;1.00;;;;;;4982828;28;20431;-48
2023/03/06 08:28:49;;;;;;;19.27;10.50;;;3.30;99.90;;;;;;4987325;28;20235;-49
2023/03/06 08:31:23;;;;;;;20.57;9.73;;;3.40;1.00;;;;;;4981200;28;20552;-48
2023/03/06 08:33:49;;;;;;;21.20;11.13;;;3.40;1.00;;;;;;4980206;28;20451;-48
2023/03/06 08:36:14;;;;;;;19.03;10.33;;;3.40;1.00;;;;;;4983073;28;20476;-48
2023/03/06 08:38:40;;;;;;;19.33;8.93;;;3.30;99.90;;;;;;4984233;28;20193;-48
2023/03/06 08:41:05;;;;;;;16.63;8.77;;;3.10;1.00;;;;;;4981352;28;20190;-48
2023/03/06 08:43:31;;;;;;;15.97;8.33;;;3.10;99.90;;;;;;4981037;28;20277;-48
2023/03/06 08:45:57;;;;;;;16.47;9.20;;;3.10;1.00;;;;;;4981238;28;20189;-49
2023/03/06 08:48:23;;;;;;;14.90;8.60;;;3.10;99.90;;;;;;4981676;28;20649;-49
2023/03/06 08:50:49;;;;;;;17.40;8.63;;;3.10;99.90;;;;;;4979652;28;20464;-49
2023/03/06 08:53:16;;;;;;;14.80;9.40;;;3.10;99.90;;;;;;4980419;28;20894;-49
2023/03/06 08:55:41;;;;;;;12.50;7.73;;;3.10;99.90;;;;;;4981997;28;20476;-49
2023/03/06 08:58:07;;;;;;;16.57;8.93;;;3.10;99.90;;;;;;4988820;28;20491;-49
2023/03/06 09:00:33;;;;;;;11.07;6.47;;;3.00;99.90;;;;;;4977948;28;20263;-49
2023/03/06 09:02:59;;;;;;;10.60;5.97;;;2.90;99.90;;;;;;4985425;28;20212;-50
2023/03/06 09:05:25;;;;;;;9.47;5.73;;;2.90;99.90;;;;;;4985705;28;20475;-49
2023/03/06 09:07:51;;;;;;;12.63;6.60;;;2.90;99.90;;;;;;4980194;28;20241;-52
2023/03/06 09:10:20;;;;;;;14.03;7.43;;;3.10;1.00;;;;;;4990561;28;20198;-49
2023/03/06 09:12:45;;;;;;;11.17;7.60;;;3.30;99.90;;;;;;4983377;28;20193;-49
2023/03/06 09:15:12;;;;;;;11.23;6.83;;;3.50;1.00;;;;;;4980184;28;20503;-49
2023/03/06 09:17:38;;;;;;;12.30;6.43;;;3.50;85.30;;;;;;4978662;28;20240;-49
2023/03/06 09:20:06;;;;;;;11.27;6.97;;;3.40;59.10;;;;;;4982383;28;20477;-49
2023/03/06 09:22:32;;;;;;;9.27;6.10;;;3.60;99.90;;;;;;4981670;28;20456;-49
2023/03/06 09:24:57;;;;;;;14.53;7.43;;;3.70;55.80;;;;;;4980778;28;20491;-50
2023/03/06 09:27:23;;;;;;;9.90;6.13;;;3.90;99.90;;;;;;4981956;28;20323;-49
2023/03/06 09:29:49;;;;;;;12.23;7.27;;;4.00;1.00;;;;;;4983833;28;20243;-50
2023/03/06 09:32:14;;;;;;;9.43;6.73;;;4.10;1.00;;;;;;4983084;28;20200;-50
2023/03/06 09:34:40;;;;;;;11.80;6.90;;;4.40;99.90;;;;;;4977543;28;20734;-50
2023/03/06 09:37:06;;;;;;;10.07;5.90;;;4.40;1.00;;;;;;4980330;28;20595;-50
2023/03/06 09:39:32;;;;;;;12.87;6.00;;;4.30;99.90;;;;;;4980635;28;20433;-49
2023/03/06 09:41:57;;;;;;;10.53;6.70;;;4.00;34.80;;;;;;4979899;28;20232;-48
2023/03/06 09:44:35;;;;;;;11.63;7.50;;;3.90;99.90;;;;;;4982293;28;20209;-50
2023/03/06 09:47:35;;;;;;;17.80;7.93;;;3.80;1.00;;;;;;4977360;28;20184;-48
2023/03/06 09:50:21;;;;;;;13.77;8.40;;;3.90;1.00;;;;;;4985872;28;20448;-49
2023/03/06 09:53:25;;;;;;;12.00;8.27;;;4.10;1.00;;;;;;4979346;28;20201;-49
2023/03/06 09:55:59;;;;;;;13.90;7.53;;;4.30;51.60;;;;;;4989994;28;20788;-51
2023/03/06 09:58:28;;;;;;;14.20;7.93;;;4.40;99.90;;;;;;4989032;28;20447;-50
2023/03/06 10:01:05;;;;;;;10.87;7.37;;;4.20;99.90;;;;;;4999986;28;20425;-49
2023/03/06 10:03:40;;;;;;;11.37;7.77;;;4.00;99.90;;;;;;4992672;28;20535;-51
2023/03/06 10:06:17;;;;;;;12.33;7.87;;;4.00;99.90;;;;;;4996575;28;20854;-49
2023/03/06 10:08:51;;;;;;;14.40;8.97;;;3.90;99.90;;;;;;4994879;28;20466;-49
2023/03/06 10:11:28;;;;;;;16.50;10.23;;;3.80;99.90;;;;;;4977831;28;20433;-49
2023/03/06 10:14:25;;;;;;;22.43;11.03;;;3.80;99.90;;;;;;4987865;28;20590;-48
2023/03/06 10:16:51;;;;;;;19.13;11.53;;;3.90;99.90;;;;;;4994547;28;20444;-49
2023/03/06 10:19:18;;;;;;;20.00;10.90;;;4.00;99.90;;;;;;4994919;28;20415;-48
2023/03/06 10:22:02;;;;;;;22.03;10.90;;;4.10;99.90;;;;;;4994850;28;20216;-49
2023/03/06 10:24:49;;;;;;;18.87;11.17;;;4.00;99.90;;;;;;4993569;28;20868;-48
2023/03/06 10:27:20;;;;;;;21.43;10.93;;;4.00;99.90;;;;;;4993379;28;20455;-49
2023/03/06 10:29:50;;;;;;;20.30;10.73;;;3.90;99.90;;;;;;4994781;28;20412;-49
2023/03/06 10:32:36;;;;;;;17.57;10.47;;;3.90;99.90;;;;;;4994848;28;20775;-49
2023/03/06 10:35:10;;;;;;;18.27;10.87;;;3.80;99.90;;;;;;4954434;28;20479;-49
2023/03/06 10:37:36;;;;;;;20.87;11.03;;;3.90;99.90;;;;;;4991787;28;20452;-49
2023/03/06 10:40:15;;;;;;;15.13;9.53;;;3.90;99.90;;;;;;4991157;28;21018;-49
2023/03/06 10:42:41;;;;;;;17.47;10.50;;;3.90;99.40;;;;;;4993154;28;20230;-49
2023/03/06 10:45:11;;;;;;;14.23;9.87;;;3.90;99.90;;;;;;4993656;28;20487;-48
2023/03/06 10:47:37;;;;;;;16.57;10.27;;;3.90;99.90;;;;;;4993171;28;20188;-49
2023/03/06 10:50:19;;;;;;;18.20;10.50;;;4.30;99.90;;;;;;4975834;28;20488;-49
2023/03/06 10:53:03;;;;;;;15.27;9.50;;;5.00;91.80;;;;;;4974619;28;20428;-49
2023/03/06 10:55:31;;;;;;;18.17;9.47;;;5.40;1.00;;;;;;4985310;28;20444;-49
2023/03/06 10:57:57;;;;;;;13.47;8.97;;;5.30;1.00;;;;;;4977421;28;20498;-49
2023/03/06 11:00:34;;;;;;;12.40;8.60;;;5.10;1.00;;;;;;4977019;28;20928;-50
2023/03/06 11:03:16;;;;;;;14.43;8.33;;;5.40;1.00;;;;;;4981864;28;20288;-49
2023/03/06 11:05:54;;;;;;;18.93;9.03;;;5.70;1.00;;;;;;4980175;28;20456;-49
2023/03/06 11:08:21;;;;;;;11.03;7.20;;;6.10;1.00;;;;;;4979783;28;20441;-51
2023/03/06 11:11:05;;;;;;;14.40;7.10;;;6.10;1.00;;;;;;4979142;28;21504;-49
2023/03/06 11:13:36;;;;;;;10.13;6.10;;;5.80;1.00;;;;;;4976464;28;20964;-50
2023/03/06 11:16:17;;;;;;;7.30;5.80;;;6.20;1.00;;;;;;4980936;28;21301;-49
2023/03/06 11:18:56;;;;;;;7.67;5.73;;;7.20;1.00;;;;;;4992451;28;20951;-49
2023/03/06 11:21:31;;;;;;;8.53;5.40;;;8.40;1.00;;;;;;4990248;28;20449;-49
2023/03/06 11:24:26;;;;;;;7.87;5.10;;;9.40;1.00;;;;;;4983124;28;20466;-49
2023/03/06 11:27:02;;;;;;;8.30;4.50;;;10.10;1.00;;;;;;4969777;28;21399;-50
2023/03/06 11:29:43;;;;;;;5.47;4.10;;;10.60;1.00;;;;;;4980603;28;20930;-50
2023/03/06 11:32:21;;;;;;;4.10;3.57;;;10.80;1.00;;;;;;4983004;28;20985;-49
2023/03/06 11:34:57;;;;;;;7.47;4.27;;;11.30;1.00;;;;;;4981109;28;20599;-49
2023/03/06 11:37:41;;;;;;;4.77;3.50;;;11.70;1.00;;;;;;4980142;28;20445;-49
2023/03/06 11:40:09;;;;;;;5.87;2.43;;;11.40;1.00;;;;;;4982283;28;20461;-50
2023/03/06 11:42:51;;;;;;;4.90;2.00;;;10.50;1.00;;;;;;4980670;28;20462;-50
2023/03/06 11:45:36;;;;;;;4.17;1.60;;;9.70;1.00;;;;;;4982615;28;20608;-49
2023/03/06 11:48:13;;;;;;;5.90;2.37;;;9.20;1.00;;;;;;4981734;28;20920;-50
2023/03/06 11:50:48;;;;;;;4.27;1.50;;;9.10;1.00;;;;;;4977858;28;20456;-50
2023/03/06 11:53:17;;;;;;;3.50;2.00;;;8.60;1.00;;;;;;4981626;28;20445;-50
2023/03/06 11:55:54;;;;;;;3.03;2.00;;;8.00;1.00;;;;;;4986708;28;20432;-49
2023/03/06 11:59:06;;;;;;;6.30;2.07;;;7.50;1.00;;;;;;4986981;28;20453;-49
2023/03/06 12:01:44;;;;;;;2.47;1.67;;;6.90;1.00;;;;;;4981745;28;20931;-50
2023/03/06 12:04:32;;;;;;;3.40;1.30;;;6.60;1.00;;;;;;4985782;28;20514;-49
2023/03/06 12:07:19;;;;;;;5.23;1.87;;;6.50;1.00;;;;;;4982767;28;20456;-49
2023/03/06 12:09:47;;;;;;;3.17;1.27;;;6.90;1.00;;;;;;4980432;28;20543;-50
2023/03/06 12:12:20;;;;;;;5.03;1.40;;;8.30;1.00;;;;;;4983377;28;20441;-50
2023/03/06 12:15:17;;;;;;;4.10;1.10;;;9.60;1.00;;;;;;4980475;28;21004;-50
2023/03/06 12:18:17;;;;;;;3.97;1.50;;;10.50;1.00;;;;;;4980363;28;20946;-51
2023/03/06 12:21:03;;;;;;;4.03;1.07;;;11.60;1.00;;;;;;4987028;28;20442;-50
2023/03/06 12:23:59;;;;;;;6.50;1.50;;;12.60;1.00;;;;;;4979013;28;20516;-50
2023/03/06 12:26:57;;;;;;;3.00;1.10;;;13.20;1.00;;;;;;4984983;28;20454;-52
2023/03/06 12:29:41;;;;;;;2.50;1.20;;;14.00;1.00;;;;;;4983658;28;20457;-50
2023/03/06 12:32:33;;;;;;;2.20;0.80;;;13.80;1.00;;;;;;4986375;28;20516;-51
2023/03/06 12:35:19;;;;;;;2.20;1.00;;;13.60;1.00;;;;;;4983442;28;20498;-50
2023/03/06 12:38:23;;;;;;;4.20;1.00;;;13.40;1.00;;;;;;4982931;28;20456;-50
2023/03/06 12:41:23;;;;;;;1.20;1.10;;;13.20;1.00;;;;;;4985625;28;20443;-50
2023/03/06 12:44:02;;;;;;;4.17;1.30;;;13.20;1.00;;;;;;4979326;28;20482;-50
2023/03/06 12:46:29;;;;;;;3.80;1.10;;;13.10;1.00;;;;;;4984741;28;20530;-51
2023/03/06 12:49:04;;;;;;;2.60;1.10;;;13.20;1.00;;;;;;4988042;28;20794;-50
2023/03/06 12:51:31;;;;;;;2.33;1.10;;;13.10;1.00;;;;;;4983064;28;20952;-50
2023/03/06 12:53:59;;;;;;;2.93;1.10;;;11.80;1.00;;;;;;4983664;28;20501;-50
2023/03/06 12:56:26;;;;;;;2.97;1.10;;;10.60;1.00;;;;;;4982200;28;20452;-49
2023/03/06 12:58:53;;;;;;;1.73;1.03;;;9.70;1.00;;;;;;4980297;28;20430;-50
2023/03/06 13:01:36;;;;;;;2.20;1.53;;;9.90;1.00;;;;;;4980074;28;20923;-50
2023/03/06 13:04:23;;;;;;;6.03;1.50;;;9.40;1.00;;;;;;4980570;28;20476;-50
2023/03/06 13:06:54;;;;;;;3.67;1.10;;;8.70;1.00;;;;;;4978685;28;20457;-50